Aviation Digital Data Service (ADDS)

Output produced by METARs form (1135 UTC 27 July 2016)
found at http://aviationweather.gov/adds/metars/
 
KDUJ 271120Z 2712/2812 VRB03KT P6SM BKN100 
     FM271500 VRB03KT P6SM SCT100